Pagrindinis puslapis
METAR-TAF:

METAR-TAF

Oro uostai :

Žakarepagva oro uostas

Rio de Žaneiras, Rio de Janeiro, Brazilija

platuma: 22-59S, ilguma: 043-22W, Aukštis: 3 m

Dabartinis oras

Ataskaita buvo paskelbta 1 valandą ir 9 minutes, ne 22:00 UTC
Vėjas 1 kt iš Vakarų
Temperatūra 24°C
Drėgmė 100%
Slėgis 1013 hPa
Matomumas 10 km arba daugiau
nėra debesų žemiau 1500 m ir nėra kamuolinių lietaus debesų

METAR: SBJR 162200Z 26001KT CAVOK 24/24 Q1013

Laikas: 20:09 (23:09 UTC)


TAF: trūkstamas

Orai ataskaitas ir orų prognozės (METAR, TAF).

turimą stotys yra geltonos ir raudonos taškus žemėlapyje.

Perkelti pele per norėdami pamatyti stoties vardą.

Tada spustelėkite, norėdami matyti oro stebėjimo ir prognozės.

Norėdami pakeisti žemėlapį: spustelėkite ant žalios mygtukų su juodo kryžiaus žemyn,; žalią mygtuką su brūkšneliu, jei norite nutolinti; arba žalių rodyklių gretimoms žemėlapius.


METAR-TAF: